Latest Coastal Weather Observations for Bairnsdale

IDV60701

Issued at 7:15 am EST Thursday 31 July 2014 (issued every 10 minutes, with the page automatically refreshed every 10 minutes)

About coastal observations | Map of coastal stations | Coastal observations for VIC | Marine services | Other Formats
Station Details ID: 085279 Name: BAIRNSDALE AIRPORT Lat: -37.88 Lon: 147.57 Height: 49.4 m
Data from the previous 72 hours. | See also: Recent months at Bairnsdale
Date/Time
EST
Temp

°C
Wind Pressure Rain
since 9am
mm
Weather Cloud Vis
km
Sea
Height
m
Swell
Dir
 
Speed
knots
Gust
knots
hPa Trend Height
m
Period
s
Dir
31/07:01am 16.4 NNW 21 32 1001.9 - 0.0 - - 10 - - - -
31/07:00am 16.3 NNW 21 29 1001.8 - 0.0 - - 10 - - - -
31/06:48am 16.4 NNW 20 30 1002.3 - 0.0 - - 10 - - - -
31/06:30am 16.3 NNW 20 27 1002.6 - 0.0 - - 10 - - - -
31/06:04am 16.0 NNW 17 27 1002.8 - 0.0 - - 10 - - - -
31/06:00am 16.2 NNW 17 23 1002.9 - 0.0 - - 10 - - - -
31/05:40am 16.1 NNW 15 25 1003.0 - 0.0 - - 10 - - - -
31/05:30am 16.3 NNW 16 22 1003.1 - 0.0 - - 10 - - - -
31/05:00am 16.1 NW 15 21 1003.6 - 0.0 - - 10 - - - -
31/04:30am 15.9 NW 14 20 1003.6 - 0.0 - - 10 - - - -
31/04:00am 15.4 NNW 13 18 1004.1 - 0.0 - - 10 - - - -
31/03:30am 15.4 NNW 12 17 1004.7 - 0.0 - - 10 - - - -
31/03:00am 15.4 NNW 12 17 1005.3 - 0.0 - Mostly clear 10 - - - -
31/02:30am 15.0 NNW 10 15 1005.8 - 0.0 - Partly cloudy 10 - - - -
31/02:00am 14.9 N 10 13 1006.3 - 0.0 - Partly cloudy 10 - - - -
31/01:30am 14.1 NNW 9 12 1006.8 - 0.0 - Partly cloudy 10 - - - -
31/01:00am 13.2 NNW 8 11 1007.4 - 0.0 - Partly cloudy 10 - - - -
31/12:30am 9.8 WNW 4 5 1007.6 - 0.0 - - 10 - - - -
31/12:00am 12.7 WNW 6 8 1007.9 - 0.0 - - 10 - - - -
 
Date/Time
EST
Temp

°C
Wind Pressure Rain
since 9am
mm
Weather Cloud Vis
km
Sea
Height
m
Swell
Dir
 
Speed
knots
Gust
knots
hPa Trend Height
m
Period
s
Dir
30/11:30pm 13.1 WNW 8 10 1008.0 - 0.0 - - 10 - - - -
30/11:00pm 13.7 NW 9 13 1008.1 - 0.0 - - 10 - - - -
30/10:30pm 15.6 NNW 13 19 1008.1 - 0.0 - - 10 - - - -
30/10:00pm 15.6 NNW 13 17 1008.0 - 0.0 - - 10 - - - -
30/09:30pm 15.5 NNW 13 17 1007.9 - 0.0 - - 10 - - - -
30/09:00pm 15.3 NNW 11 15 1008.1 - 0.0 - Mostly clear 10 - - - -
30/08:30pm 14.8 NNW 9 12 1008.3 - 0.0 - Partly cloudy 10 - - - -
30/08:00pm 13.9 NNW 6 8 1008.8 - 0.0 - Partly cloudy 10 - - - -
30/07:30pm 13.6 NNW 7 9 1009.0 - 0.0 - Partly cloudy 10 - - - -
30/07:00pm 14.5 NNW 9 12 1008.8 - 0.0 - - 10 - - - -
30/06:30pm 15.0 NW 8 11 1009.1 - 0.0 - - 10 - - - -
30/06:00pm 15.4 NW 11 15 1009.1 - 0.0 - - 10 - - - -
30/05:30pm 16.1 NW 12 17 1008.6 - 0.0 - - 10 - - - -
30/05:00pm 16.5 NW 13 18 1008.4 - 0.0 - - 10 - - - -
30/04:30pm 17.4 NNW 15 22 1008.2 - 0.0 - - 10 - - - -
30/04:00pm 18.6 NNW 11 17 1008.1 - 0.0 - Partly cloudy 10 - - - -
30/03:30pm 18.9 NNW 15 21 1008.2 - 0.0 - Partly cloudy 10 - - - -
30/03:00pm 19.9 NNW 12 17 1008.4 - 0.0 - Mostly cloudy 10 - - - -
30/02:30pm 20.2 NW 11 15 1008.4 - 0.0 - Cloudy 10 - - - -
30/02:00pm 20.2 WNW 15 20 1008.7 - 0.0 - Partly cloudy 10 - - - -
30/01:31pm 20.5 WNW 15 26 1008.7 - 0.0 - - 10 - - - -
30/01:30pm 20.6 WNW 15 22 1008.7 - 0.0 - - 10 - - - -
30/01:00pm 20.5 W 15 24 1009.3 - 0.0 - - 10 - - - -
30/12:40pm 20.0 W 17 28 1009.5 - 0.0 - - 10 - - - -
30/12:30pm 20.1 W 17 23 1009.8 - 0.0 - - 10 - - - -
30/12:00pm 19.7 W 17 24 1010.3 - 0.0 - - 10 - - - -
30/11:30am 19.5 W 14 23 1010.8 - 0.0 - - 10 - - - -
30/11:00am 19.2 WNW 16 27 1011.0 - 0.0 - - 10 - - - -
30/10:58am 19.1 WNW 15 27 1010.7 - 0.0 - - 10 - - - -
30/10:30am 18.5 NW 10 13 1011.0 - 0.0 - - 10 - - - -
30/10:00am 17.2 NNW 7 11 1011.0 - 0.0 - Partly cloudy 10 - - - -
30/09:30am 14.6 ESE 3 4 1011.2 - 0.0 - Cloudy 10 - - - -
30/09:00am 13.3 S 7 9 1011.3 - 0.0 - Partly cloudy 10 - - - -
30/08:30am 13.4 SSW 8 11 1011.0 - 0.0 - - 10 - - - -
30/08:00am 11.2 NNW 5 5 1010.7 - 0.0 - - 10 - - - -
30/07:30am 11.9 NW 8 10 1010.4 - 0.0 - - 10 - - - -
30/07:00am 12.0 WNW 6 8 1010.4 - 0.0 - Partly cloudy 10 - - - -
30/06:30am 13.0 WNW 9 12 1010.1 - 0.0 - Partly cloudy 10 - - - -
30/06:00am 11.7 WNW 6 7 1010.0 - 0.0 - - 10 - - - -
30/05:30am 12.4 W 7 9 1009.8 - 0.0 - - 10 - - - -
30/05:00am 13.4 W 9 11 1009.6 - 0.0 - - 10 - - - -
30/04:30am 13.1 NW 8 10 1009.2 - 0.0 - Partly cloudy 10 - - - -
30/04:00am 14.9 W 11 17 1008.9 - 0.0 - Partly cloudy 10 - - - -
30/03:30am 14.6 W 11 14 1009.0 - 0.0 - Partly cloudy 10 - - - -
30/03:00am 12.4 W 7 9 1009.2 - 0.0 - Partly cloudy 10 - - - -
30/02:30am 12.4 WNW 7 8 1009.1 - 0.0 - Partly cloudy 10 - - - -
30/02:00am 13.2 NW 8 10 1008.8 - 0.0 - Partly cloudy 10 - - - -
30/01:30am 12.9 WNW 6 8 1008.6 - 0.0 - Cloudy 10 - - - -
30/01:00am 11.4 NW 6 7 1008.3 - 0.0 - Partly cloudy 10 - - - -
30/12:30am 11.8 NW 6 8 1008.2 - 0.0 - Partly cloudy 10 - - - -
30/12:00am 12.5 NW 7 10 1008.3 - 0.0 - Mostly clear 10 - - - -
 
Date/Time
EST
Temp

°C
Wind Pressure Rain
since 9am
mm
Weather Cloud Vis
km
Sea
Height
m
Swell
Dir
 
Speed
knots
Gust
knots
hPa Trend Height
m
Period
s
Dir
29/11:30pm 12.9 NW 7 9 1008.2 - 0.0 - Partly cloudy 10 - - - -
29/11:00pm 14.4 NW 9 12 1008.0 - 0.0 - Partly cloudy 10 - - - -
29/10:30pm 14.7 NW 12 20 1007.9 - 0.0 - Partly cloudy 10 - - - -
29/10:00pm 14.8 NNW 14 19 1007.6 - 0.0 - Partly cloudy 10 - - - -
29/09:30pm 15.3 NNW 15 19 1007.6 - 0.0 - Partly cloudy 10 - - - -
29/09:00pm 15.3 NNW 12 17 1007.6 - 0.0 - Mostly cloudy 10 - - - -
29/08:30pm 14.4 NNW 12 16 1007.8 - 0.0 - Partly cloudy 10 - - - -
29/08:00pm 14.9 NNW 14 19 1007.2 - 0.0 - - 10 - - - -
29/07:30pm 14.9 NNW 15 25 1006.8 - 0.0 - - 10 - - - -
29/07:28pm 14.9 NNW 15 25 1006.6 - 0.0 - - 10 - - - -
29/07:00pm 14.8 NW 13 19 1006.6 - 0.0 - - 10 - - - -
29/06:53pm 15.1 NW 15 25 1006.7 - 0.0 - - 10 - - - -
29/06:30pm 15.6 NW 18 26 1006.3 - 0.0 - - 10 - - - -
29/06:00pm 15.4 NNW 21 29 1005.5 - 0.0 - - 10 - - - -
29/05:30pm 15.3 NNW 19 26 1005.4 - 0.0 - - 10 - - - -
29/05:00pm 15.4 NW 17 25 1005.8 - 0.0 - - 10 - - - -
29/04:30pm 15.4 NNW 15 22 1005.5 - 0.0 - - 10 - - - -
29/04:00pm 15.9 NNW 15 24 1005.3 - 0.0 - - 10 - - - -
29/03:30pm 16.1 NNW 15 22 1005.3 - 0.0 - - 10 - - - -
29/03:25pm 16.2 N 15 25 1005.3 - 0.0 - - 10 - - - -
29/03:00pm 16.1 NNW 16 24 1005.6 - 0.0 - - 10 - - - -
29/02:48pm 16.6 NNW 16 26 1005.4 - 0.0 - - 10 - - - -
29/02:30pm 16.5 NNW 18 26 1005.3 - 0.0 - - 10 - - - -
29/02:01pm 16.9 NNW 17 28 1005.5 - 0.0 - - 10 - - - -
29/02:00pm 16.8 NNW 17 25 1005.5 - 0.0 - - 10 - - - -
29/01:30pm 17.3 NNW 19 27 1005.8 - 0.0 - - 10 - - - -
29/01:00pm 17.2 NNW 19 26 1006.3 - 0.0 - - 10 - - - -
29/12:30pm 16.8 NNW 19 26 1006.5 - 0.0 - - 10 - - - -
29/12:16pm 18.2 NNW 19 29 1006.8 - 0.0 - - 10 - - - -
29/12:00pm 17.9 NNW 21 30 1007.1 - 0.0 - - 10 - - - -
29/11:41am 17.4 NNW 20 31 1007.1 - 0.0 - - 10 - - - -
29/11:30am 17.5 NNW 17 25 1006.8 - 0.0 - - 10 - - - -
29/11:00am 16.9 NNW 18 27 1007.1 - 0.0 - - 10 - - - -
29/10:30am 17.1 NNW 17 27 1008.3 - 0.0 - - 10 - - - -
29/10:21am 16.9 NNW 15 27 1008.3 - 0.0 - - 10 - - - -
29/10:00am 16.9 NNW 11 17 1008.9 - 0.0 - - 10 - - - -
29/09:30am 15.9 NW 13 21 1009.1 - 0.0 - - 10 - - - -
29/09:00am 13.8 NW 11 16 1008.9 - 0.0 - - 10 - - - -
29/08:30am 13.8 NW 9 15 1008.9 - 0.0 - - 10 - - - -
29/08:00am 13.3 NW 11 16 1008.6 - 0.0 - - 10 - - - -
29/07:30am 13.0 NW 11 17 1008.5 - 0.0 - - 10 - - - -
29/07:00am 12.2 WNW 9 12 1008.7 - 0.0 - - 10 - - - -
29/06:30am 13.3 NW 11 15 1008.6 - 0.0 - - 10 - - - -
29/06:00am 13.9 NNW 12 19 1008.4 - 0.0 - - 10 - - - -
29/05:30am 13.5 NNW 11 17 1008.3 - 0.0 - - 10 - - - -
29/05:00am 10.9 NW 7 9 1008.3 - 0.0 - - 10 - - - -
29/04:30am 11.4 NW 7 8 1008.7 - 0.0 - - 10 - - - -
29/04:00am 10.4 NW 7 9 1009.1 - 0.0 - - 10 - - - -
29/03:30am 11.0 NW 6 8 1009.1 - 0.0 - - 10 - - - -
29/03:00am 12.7 NNW 10 13 1009.4 - 0.0 - - 10 - - - -
29/02:30am 13.5 NNW 11 17 1009.6 - 0.0 - - 10 - - - -
29/02:00am 13.5 NNW 12 17 1009.9 - 0.0 - - 10 - - - -
29/01:30am 13.4 NNW 12 16 1010.3 - 0.0 - - 10 - - - -
29/01:00am 13.7 NNW 12 16 1010.9 - 0.0 - - 10 - - - -
29/12:30am 13.5 NNW 11 15 1011.4 - 0.0 - - 10 - - - -
29/12:00am 13.8 NNW 13 17 1011.7 - 0.0 - - 10 - - - -
 
Date/Time
EST
Temp

°C
Wind Pressure Rain
since 9am
mm
Weather Cloud Vis
km
Sea
Height
m
Swell
Dir
 
Speed
knots
Gust
knots
hPa Trend Height
m
Period
s
Dir
28/11:30pm 13.2 NNW 10 13 1011.8 - 0.0 - - 10 - - - -
28/11:00pm 14.1 NNW 13 18 1011.9 - 0.0 - - 10 - - - -
28/10:30pm 13.9 NNW 13 17 1012.1 - 0.0 - - 10 - - - -
28/10:00pm 13.9 NNW 12 17 1012.2 - 0.0 - - 10 - - - -
28/09:30pm 13.9 NW 11 14 1012.3 - 0.0 - - 10 - - - -
28/09:00pm 14.2 NNW 13 17 1012.0 - 0.0 - - 10 - - - -
28/08:30pm 14.6 NNW 14 19 1011.7 - 0.0 - - 10 - - - -
28/08:00pm 14.8 NNW 16 21 1011.5 - 0.0 - - 10 - - - -
28/07:30pm 14.9 NNW 14 20 1011.9 - 0.0 - - 10 - - - -
28/07:00pm 15.1 NNW 14 22 1011.8 - 0.0 - - 10 - - - -
28/06:30pm 15.4 NNW 13 18 1012.1 - 0.0 - - 10 - - - -
28/06:00pm 15.4 NNW 13 17 1012.0 - 0.0 - - 10 - - - -
28/05:30pm 15.7 NNW 12 18 1011.4 - 0.0 - - 10 - - - -
28/05:00pm 16.1 NNW 12 17 1011.2 - 0.0 - - 10 - - - -
28/04:30pm 17.1 NNW 10 15 1011.6 - 0.0 - - 10 - - - -
28/04:00pm 17.8 NNW 13 18 1011.6 - 0.0 - - 10 - - - -
28/03:30pm 18.3 NNW 14 21 1011.6 - 0.0 - - 10 - - - -
28/03:00pm 18.7 NNW 15 21 1011.7 - 0.0 - - 10 - - - -
28/02:30pm 18.9 NNW 16 22 1011.9 - 0.0 - - 10 - - - -
28/02:00pm 19.0 NNW 15 21 1011.9 - 0.0 - - 10 - - - -
28/01:30pm 18.9 NNW 16 23 1012.5 - 0.0 - - 10 - - - -
28/01:00pm 19.1 NNW 16 22 1013.0 - 0.0 - - 10 - - - -
28/12:30pm 18.4 NNW 18 24 1013.6 - 0.0 - - 10 - - - -
28/12:00pm 17.8 NNW 19 27 1014.0 - 0.0 - - 10 - - - -
28/11:32am 17.5 NNW 19 30 1014.3 - 0.0 - - 10 - - - -
28/11:30am 17.9 NNW 18 26 1014.6 - 0.0 - - 10 - - - -
28/11:13am 17.5 NNW 16 27 1014.7 - 0.0 - - 10 - - - -
28/11:00am 17.4 NNW 18 24 1015.1 - 0.0 - - 10 - - - -
28/10:30am 16.7 NNW 17 22 1015.8 - 0.0 - - 10 - - - -
28/10:00am 16.1 NNW 15 23 1015.8 - 0.0 - - 10 - - - -
28/09:30am 15.2 NW 14 18 1016.0 - 0.0 - - 10 - - - -
28/09:00am 14.2 NW 13 18 1016.3 - 0.0 - - 10 - - - -
28/08:30am 13.3 NW 12 17 1016.4 - 0.0 - - 10 - - - -
28/08:00am 12.2 NW 13 19 1016.4 - 0.0 - - 10 - - - -
28/07:30am 11.2 NW 10 15 1016.5 - 0.0 - - 10 - - - -

Other Formats:

Comma delimited format used in spreadsheet applications
http://www.bom.gov.au/fwo/IDV60701/IDV60701.94912.axf

JavaScript Object Notation format (JSON) in row-major order
http://www.bom.gov.au/fwo/IDV60701/IDV60701.94912.json